createdAt,value
2017-09-27T00:01:39.412Z,98313.94
2017-09-27T00:04:07.232Z,98309.80
2017-09-27T00:06:34.946Z,98315.73
2017-09-27T00:09:02.951Z,98309.91
2017-09-27T00:11:30.881Z,98308.07
2017-09-27T00:13:58.497Z,98309.12
2017-09-27T00:16:26.418Z,98303.89
2017-09-27T00:18:54.151Z,98305.70
2017-09-27T00:21:21.869Z,98305.05
2017-09-27T00:23:49.737Z,98297.62
2017-09-27T00:26:17.627Z,98293.97
2017-09-27T00:28:45.177Z,98287.08
2017-09-27T00:31:13.358Z,98288.39
2017-09-27T00:33:41.044Z,98281.57
2017-09-27T00:36:08.612Z,98281.85
2017-09-27T00:38:36.218Z,98272.33
2017-09-27T00:41:04.468Z,98274.12
2017-09-27T00:43:32.385Z,98276.36
2017-09-27T00:46:00.307Z,98269.89
2017-09-27T00:48:28.018Z,98271.67
2017-09-27T00:50:55.937Z,98271.04
2017-09-27T00:53:23.974Z,98267.44
2017-09-27T00:55:52.699Z,98272.94
2017-09-27T00:58:21.630Z,98271.50
2017-09-27T01:00:49.208Z,98272.33
2017-09-27T01:03:16.724Z,98272.98
2017-09-27T01:05:44.451Z,98276.05
2017-09-27T01:08:12.853Z,98275.84
2017-09-27T01:10:41.652Z,98272.23
2017-09-27T01:13:09.951Z,98278.10
2017-09-27T01:15:37.584Z,98277.69
2017-09-27T01:18:05.485Z,98272.38
2017-09-27T01:20:34.804Z,98266.18
2017-09-27T01:23:02.924Z,98268.64
2017-09-27T01:25:30.638Z,98262.87
2017-09-27T01:27:59.617Z,98257.39
2017-09-27T01:30:28.362Z,98258.05
2017-09-27T01:32:56.730Z,98260.31
2017-09-27T01:35:25.106Z,98255.61
2017-09-27T01:37:53.749Z,98251.74
2017-09-27T01:40:21.443Z,98260.33
2017-09-27T01:42:49.660Z,98254.98
2017-09-27T01:45:18.315Z,98257.42
2017-09-27T01:47:46.778Z,98257.70
2017-09-27T01:50:14.450Z,98265.33
2017-09-27T01:52:41.993Z,98267.41
2017-09-27T01:55:10.397Z,98271.44
2017-09-27T01:57:37.975Z,98272.11
2017-09-27T02:00:05.799Z,98270.43
2017-09-27T02:02:33.494Z,98279.48
2017-09-27T02:05:01.140Z,98271.45
2017-09-27T02:07:28.958Z,98271.16
2017-09-27T02:09:56.628Z,98270.00
2017-09-27T02:12:24.503Z,98272.08
2017-09-27T02:14:52.159Z,98267.62
2017-09-27T02:17:19.778Z,98269.48
2017-09-27T02:19:47.313Z,98272.47
2017-09-27T02:22:15.980Z,98278.91
2017-09-27T02:24:44.129Z,98278.59
2017-09-27T02:27:12.287Z,98278.84
2017-09-27T02:29:39.919Z,98277.78
2017-09-27T02:32:12.020Z,98279.75
2017-09-27T02:34:39.637Z,98261.92
2017-09-27T02:37:07.298Z,98283.22
2017-09-27T02:39:34.918Z,98281.48
2017-09-27T02:42:02.473Z,98287.58
2017-09-27T02:44:30.033Z,98281.78
2017-09-27T02:46:57.537Z,98288.09
2017-09-27T02:49:25.233Z,98290.07
2017-09-27T02:51:53.647Z,98292.58
2017-09-27T02:54:21.166Z,98295.83
2017-09-27T02:56:49.036Z,98299.25
2017-09-27T02:59:16.690Z,98302.58
2017-09-27T03:01:46.594Z,98295.86
2017-09-27T03:04:14.364Z,98279.59
2017-09-27T03:06:42.097Z,98301.73
2017-09-27T03:09:10.377Z,98304.14
2017-09-27T03:11:37.963Z,98297.31
2017-09-27T03:14:05.672Z,98303.95
2017-09-27T03:16:33.311Z,98297.03
2017-09-27T03:19:00.926Z,98308.25
2017-09-27T03:21:29.644Z,98302.69
2017-09-27T03:23:59.220Z,98299.88
2017-09-27T03:26:27.664Z,98311.88
2017-09-27T03:28:55.216Z,98301.08
2017-09-27T03:31:22.810Z,98305.25
2017-09-27T03:33:51.254Z,98314.06
2017-09-27T03:36:20.696Z,98308.91
2017-09-27T03:38:49.072Z,98311.83
2017-09-27T03:41:16.668Z,98294.92
2017-09-27T03:43:44.617Z,98293.03
2017-09-27T03:46:12.667Z,98307.99
2017-09-27T03:48:40.311Z,98313.55
2017-09-27T03:51:07.996Z,98307.76
2017-09-27T03:53:36.953Z,98310.78
2017-09-27T03:56:04.666Z,98314.84
2017-09-27T03:58:33.062Z,98314.33
2017-09-27T04:01:01.666Z,98315.14
2017-09-27T04:03:29.240Z,98315.80
2017-09-27T04:05:56.804Z,98317.72
2017-09-27T04:08:24.395Z,98318.03
2017-09-27T04:10:51.969Z,98320.85
2017-09-27T04:13:20.770Z,98285.13
2017-09-27T04:15:49.772Z,98328.77
2017-09-27T04:18:17.363Z,98328.02
2017-09-27T04:20:44.936Z,98335.55
2017-09-27T04:23:12.667Z,98329.89
2017-09-27T04:25:40.393Z,98330.47
2017-09-27T04:28:08.701Z,98333.47
2017-09-27T04:30:36.433Z,98334.56
2017-09-27T04:33:04.211Z,98316.94
2017-09-27T04:35:31.864Z,98326.00
2017-09-27T04:37:59.996Z,98325.88
2017-09-27T04:40:28.820Z,98328.48
2017-09-27T04:42:56.449Z,98329.63
2017-09-27T04:45:24.814Z,98332.76
2017-09-27T04:47:52.693Z,98329.42
2017-09-27T04:50:20.522Z,98327.75
2017-09-27T04:52:48.139Z,98326.52
2017-09-27T04:55:16.113Z,98327.79
2017-09-27T04:57:43.755Z,98331.64
2017-09-27T05:00:11.475Z,98331.55
2017-09-27T05:02:39.108Z,98332.72
2017-09-27T05:05:06.876Z,98330.63
2017-09-27T05:07:34.354Z,98335.33
2017-09-27T05:10:01.904Z,98335.91
2017-09-27T05:15:03.522Z,98338.22
2017-09-27T05:17:30.995Z,98335.44
2017-09-27T05:19:59.608Z,98343.80
2017-09-27T05:22:27.114Z,98338.74
2017-09-27T05:24:54.721Z,98337.30
2017-09-27T05:27:22.278Z,98338.34
2017-09-27T05:29:49.937Z,98339.63
2017-09-27T05:32:17.537Z,98348.78
2017-09-27T05:34:45.094Z,98339.64
2017-09-27T05:37:12.611Z,98344.27
2017-09-27T05:39:40.173Z,98351.66
2017-09-27T05:42:07.722Z,98349.55
2017-09-27T05:44:35.240Z,98352.06
2017-09-27T05:47:02.957Z,98347.66
2017-09-27T05:49:30.541Z,98350.04
2017-09-27T05:51:59.030Z,98351.25
2017-09-27T05:54:26.595Z,98349.05
2017-09-27T05:56:54.125Z,98355.63
2017-09-27T05:59:21.682Z,98359.39
2017-09-27T06:01:49.523Z,98350.89
2017-09-27T06:04:17.045Z,98354.61
2017-09-27T06:06:44.593Z,98363.16
2017-09-27T06:09:12.080Z,98363.36
2017-09-27T06:11:40.469Z,98365.81
2017-09-27T06:14:08.163Z,98364.17
2017-09-27T06:16:35.721Z,98358.62
2017-09-27T06:19:03.386Z,98356.87
2017-09-27T06:21:31.641Z,98364.27
2017-09-27T06:23:59.199Z,98357.97
2017-09-27T06:26:26.709Z,98357.30
2017-09-27T06:28:54.248Z,98359.55
2017-09-27T06:31:21.880Z,98365.25
2017-09-27T06:33:49.423Z,98362.41
2017-09-27T06:36:17.058Z,98368.28
2017-09-27T06:38:44.622Z,98371.42
2017-09-27T06:41:12.533Z,98377.72
2017-09-27T06:43:40.049Z,98383.87
2017-09-27T06:46:07.692Z,98387.22
2017-09-27T06:48:35.401Z,98383.61
2017-09-27T06:51:02.909Z,98382.21
2017-09-27T06:53:30.438Z,98381.30
2017-09-27T06:55:58.136Z,98375.66
2017-09-27T06:58:25.679Z,98380.33
2017-09-27T07:00:53.556Z,98383.98
2017-09-27T07:03:21.789Z,98384.81
2017-09-27T07:05:49.435Z,98391.14
2017-09-27T07:08:16.985Z,98387.45
2017-09-27T07:10:44.571Z,98390.91
2017-09-27T07:13:12.336Z,98386.31
2017-09-27T07:15:39.895Z,98387.05
2017-09-27T07:18:07.492Z,98387.36
2017-09-27T07:20:35.006Z,98392.87
2017-09-27T07:23:02.681Z,98391.06
2017-09-27T07:25:30.250Z,98396.52
2017-09-27T07:27:57.780Z,98409.34
2017-09-27T07:30:25.335Z,98398.80
2017-09-27T07:32:52.912Z,98403.52
2017-09-27T07:35:20.495Z,98408.20
2017-09-27T07:37:48.061Z,98404.59
2017-09-27T07:40:16.487Z,98402.79
2017-09-27T07:42:43.980Z,98399.36
2017-09-27T07:45:12.451Z,98407.73
2017-09-27T07:47:40.137Z,98388.48
2017-09-27T07:50:07.706Z,98406.20
2017-09-27T07:52:35.250Z,98398.86
2017-09-27T07:55:02.728Z,98398.55
2017-09-27T07:57:30.297Z,98396.36
2017-09-27T07:59:57.802Z,98404.11
2017-09-27T08:02:25.304Z,98397.16
2017-09-27T08:04:52.797Z,98398.08
2017-09-27T08:07:20.299Z,98398.73
2017-09-27T08:09:48.011Z,98401.20
2017-09-27T08:12:15.536Z,98399.85
2017-09-27T08:14:43.059Z,98401.14
2017-09-27T08:17:10.553Z,98400.81
2017-09-27T08:19:38.147Z,98400.67
2017-09-27T08:22:05.856Z,98395.84
2017-09-27T08:24:33.375Z,98391.22
2017-09-27T08:32:29.443Z,98383.86
2017-09-27T08:42:15.111Z,98386.14
2017-09-27T08:44:42.628Z,98377.63
2017-09-27T08:47:10.153Z,98385.58
2017-09-27T08:49:37.683Z,98389.12
2017-09-27T08:52:05.221Z,98385.20
2017-09-27T08:54:32.887Z,98384.94
2017-09-27T08:57:00.553Z,98387.32
2017-09-27T08:59:28.201Z,98383.66
2017-09-27T09:01:55.790Z,98389.45
2017-09-27T09:04:23.273Z,98395.22
2017-09-27T09:06:50.808Z,98394.52
2017-09-27T09:09:18.499Z,98391.73
2017-09-27T09:11:46.104Z,98381.97
2017-09-27T09:14:13.598Z,98390.55
2017-09-27T09:16:42.113Z,98388.38
2017-09-27T09:19:10.429Z,98393.96
2017-09-27T09:21:37.988Z,98397.59
2017-09-27T09:24:06.583Z,98387.41
2017-09-27T09:26:34.247Z,98394.86
2017-09-27T09:29:01.860Z,98398.13
2017-09-27T09:31:29.616Z,98388.17
2017-09-27T09:33:57.147Z,98405.84
2017-09-27T09:36:25.012Z,98406.61
2017-09-27T09:38:52.589Z,98402.42
2017-09-27T09:41:20.963Z,98395.28
2017-09-27T09:43:48.580Z,98388.94
2017-09-27T09:46:16.119Z,98390.09
2017-09-27T09:48:43.654Z,98394.98
2017-09-27T09:51:12.302Z,98393.05
2017-09-27T09:53:40.068Z,98379.20
2017-09-27T09:56:07.592Z,98383.84
2017-09-27T09:58:35.149Z,98387.84
2017-09-27T10:01:03.508Z,98384.34
2017-09-27T10:03:31.102Z,98377.06
2017-09-27T10:05:58.623Z,98378.81
2017-09-27T10:08:26.139Z,98381.53
2017-09-27T10:10:54.428Z,98376.30
2017-09-27T10:13:22.532Z,98378.02
2017-09-27T10:15:50.153Z,98372.88
2017-09-27T10:18:17.679Z,98369.70
2017-09-27T10:20:45.272Z,98363.91
2017-09-27T10:23:12.904Z,98363.00
2017-09-27T10:25:40.456Z,98360.48
2017-09-27T10:28:07.992Z,98357.53
2017-09-27T10:30:35.504Z,98359.67
2017-09-27T10:33:03.023Z,98359.14
2017-09-27T10:35:30.680Z,98356.52
2017-09-27T10:37:58.351Z,98351.33
2017-09-27T10:40:25.912Z,98354.07
2017-09-27T10:42:53.449Z,98347.82
2017-09-27T10:45:21.045Z,98354.77
2017-09-27T10:47:48.725Z,98356.23
2017-09-27T10:50:16.342Z,98346.41
2017-09-27T10:52:43.890Z,98347.37
2017-09-27T10:55:11.403Z,98344.16
2017-09-27T10:57:38.896Z,98343.63
2017-09-27T11:00:06.426Z,98336.37
2017-09-27T11:02:33.930Z,98347.61
2017-09-27T11:05:01.709Z,98343.77
2017-09-27T11:07:29.263Z,98343.52
2017-09-27T11:09:57.422Z,98347.81
2017-09-27T11:12:24.995Z,98340.14
2017-09-27T11:14:52.535Z,98346.58
2017-09-27T11:17:20.098Z,98341.40
2017-09-27T11:19:47.597Z,98342.95
2017-09-27T11:22:15.165Z,98335.08
2017-09-27T11:24:42.693Z,98333.79
2017-09-27T11:27:11.813Z,98330.23
2017-09-27T11:29:39.358Z,98327.22
2017-09-27T11:32:06.936Z,98326.05
2017-09-27T11:34:34.492Z,98321.23
2017-09-27T11:37:02.329Z,98320.42
2017-09-27T11:39:30.508Z,98318.40
2017-09-27T11:41:58.113Z,98309.19
2017-09-27T11:44:26.240Z,98300.69
2017-09-27T11:46:53.804Z,98313.65
2017-09-27T11:49:21.336Z,98310.70
2017-09-27T11:51:48.921Z,98313.02
2017-09-27T11:54:16.491Z,98301.63
2017-09-27T11:56:44.090Z,98301.47
2017-09-27T11:59:11.619Z,98296.78
2017-09-27T12:01:39.208Z,98301.53
2017-09-27T12:04:06.739Z,98296.13
2017-09-27T12:06:34.278Z,98298.38
2017-09-27T12:09:01.853Z,98286.87
2017-09-27T12:11:29.855Z,98297.47
2017-09-27T12:16:29.553Z,98293.84
2017-09-27T12:18:57.085Z,98294.36
2017-09-27T12:21:24.640Z,98286.57
2017-09-27T12:23:52.617Z,98287.70
2017-09-27T12:26:20.176Z,98289.33
2017-09-27T12:28:48.434Z,98287.84
2017-09-27T12:31:16.027Z,98294.23
2017-09-27T12:33:43.567Z,98290.19
2017-09-27T12:36:12.043Z,98293.45
2017-09-27T12:38:39.588Z,98286.50
2017-09-27T12:41:07.186Z,98283.26
2017-09-27T12:43:35.323Z,98282.42
2017-09-27T12:46:02.853Z,98281.66
2017-09-27T12:48:30.471Z,98291.81
2017-09-27T12:50:58.009Z,98283.98
2017-09-27T12:53:25.536Z,98285.44
2017-09-27T12:55:53.141Z,98272.23
2017-09-27T12:58:20.633Z,98278.45
2017-09-27T13:00:48.210Z,98275.23
2017-09-27T13:03:16.450Z,98273.09
2017-09-27T13:05:44.402Z,98270.68
2017-09-27T13:08:11.972Z,98274.83
2017-09-27T13:10:40.404Z,98277.41
2017-09-27T13:13:08.076Z,98282.93
2017-09-27T13:15:35.838Z,98271.78
2017-09-27T13:18:03.421Z,98270.24
2017-09-27T13:20:31.020Z,98269.55
2017-09-27T13:22:58.668Z,98268.52
2017-09-27T13:25:26.212Z,98272.66
2017-09-27T13:27:53.743Z,98268.92
2017-09-27T13:30:21.310Z,98265.37
2017-09-27T13:32:48.807Z,98267.18
2017-09-27T13:35:16.615Z,98266.73
2017-09-27T13:37:44.170Z,98266.48
2017-09-27T13:40:11.681Z,98263.99
2017-09-27T13:42:39.243Z,98261.12
2017-09-27T13:45:06.782Z,98257.13
2017-09-27T13:47:34.360Z,98259.50
2017-09-27T13:50:01.897Z,98256.47
2017-09-27T13:52:30.223Z,98256.69
2017-09-27T13:54:57.850Z,98266.16
2017-09-27T13:57:25.397Z,98264.67
2017-09-27T13:59:53.576Z,98265.42
2017-09-27T14:02:21.113Z,98259.33
2017-09-27T14:04:49.173Z,98260.53
2017-09-27T14:07:18.604Z,98259.50
2017-09-27T14:09:46.974Z,98254.61
2017-09-27T14:12:14.504Z,98252.64
2017-09-27T14:14:42.071Z,98250.81
2017-09-27T14:17:09.564Z,98252.21
2017-09-27T14:19:37.149Z,98248.07
2017-09-27T14:22:04.669Z,98238.33
2017-09-27T14:24:32.238Z,98245.39
2017-09-27T14:27:03.090Z,98241.78
2017-09-27T14:29:30.640Z,98238.02
2017-09-27T14:31:58.266Z,98236.95
2017-09-27T14:34:25.858Z,98241.23
2017-09-27T14:36:54.281Z,98237.86
2017-09-27T14:39:21.925Z,98239.13
2017-09-27T14:41:49.604Z,98231.29
2017-09-27T14:44:20.297Z,98234.84
2017-09-27T14:46:48.523Z,98231.79
2017-09-27T14:49:16.068Z,98237.86
2017-09-27T14:51:44.553Z,98230.44
2017-09-27T14:54:12.140Z,98235.61
2017-09-27T14:56:40.282Z,98223.89
2017-09-27T14:59:07.807Z,98226.33
2017-09-27T15:01:35.379Z,98226.44
2017-09-27T15:04:02.897Z,98228.98
2017-09-27T15:06:30.441Z,98231.09
2017-09-27T15:08:59.194Z,98183.59
2017-09-27T15:11:27.664Z,98227.83
2017-09-27T15:13:55.197Z,98230.86
2017-09-27T15:16:22.684Z,98235.61
2017-09-27T15:18:50.265Z,98239.91
2017-09-27T15:21:17.778Z,98235.83
2017-09-27T15:23:45.378Z,98239.19
2017-09-27T15:26:12.976Z,98240.34
2017-09-27T15:28:40.494Z,98247.61
2017-09-27T15:31:08.089Z,98240.34
2017-09-27T15:33:35.604Z,98238.36
2017-09-27T15:36:03.424Z,98236.67
2017-09-27T15:38:31.862Z,98241.47
2017-09-27T15:40:59.614Z,98242.73
2017-09-27T15:43:28.784Z,98243.98
2017-09-27T15:45:56.627Z,98243.38
2017-09-27T15:48:24.156Z,98243.81
2017-09-27T15:50:51.681Z,98244.95
2017-09-27T15:53:19.353Z,98241.94
2017-09-27T15:55:46.898Z,98249.84
2017-09-27T15:58:14.557Z,98244.17
2017-09-27T16:00:42.131Z,98241.39
2017-09-27T16:03:09.632Z,98238.73
2017-09-27T16:05:37.160Z,98240.89
2017-09-27T16:08:04.748Z,98244.98
2017-09-27T16:10:32.418Z,98240.75
2017-09-27T16:12:59.940Z,98243.16
2017-09-27T16:15:27.535Z,98252.98
2017-09-27T16:17:55.277Z,98250.59
2017-09-27T16:20:22.817Z,98244.81
2017-09-27T16:22:50.376Z,98242.20
2017-09-27T16:25:17.910Z,98254.59
2017-09-27T16:27:45.566Z,98254.41
2017-09-27T16:30:13.096Z,98251.52
2017-09-27T16:32:41.570Z,98254.61
2017-09-27T16:35:09.141Z,98250.59
2017-09-27T16:37:36.648Z,98257.45
2017-09-27T16:40:04.125Z,98265.44
2017-09-27T16:42:31.984Z,98246.16
2017-09-27T16:44:59.581Z,98271.34
2017-09-27T16:47:27.122Z,98271.39
2017-09-27T16:49:54.747Z,98272.09
2017-09-27T16:52:22.599Z,98276.44
2017-09-27T16:54:50.116Z,98284.97
2017-09-27T16:57:17.667Z,98287.30
2017-09-27T16:59:45.190Z,98285.99
2017-09-27T17:02:12.728Z,98283.42
2017-09-27T17:04:40.262Z,98284.80
2017-09-27T17:07:07.784Z,98285.06
2017-09-27T17:09:35.575Z,98291.98
2017-09-27T17:12:03.065Z,98290.65
2017-09-27T17:14:30.620Z,98287.64
2017-09-27T17:16:58.179Z,98294.74
2017-09-27T17:19:25.665Z,98292.98
2017-09-27T17:21:53.161Z,98287.27
2017-09-27T17:24:21.875Z,98294.37
2017-09-27T17:26:49.514Z,98295.23
2017-09-27T17:29:17.095Z,98294.46
2017-09-27T17:31:45.524Z,98291.82
2017-09-27T17:34:13.962Z,98296.38
2017-09-27T17:36:43.410Z,98300.21
2017-09-27T17:39:11.077Z,98294.78
2017-09-27T17:41:39.319Z,98294.38
2017-09-27T17:44:06.912Z,98300.27
2017-09-27T17:46:35.509Z,98299.00
2017-09-27T17:49:03.071Z,98300.02
2017-09-27T17:51:30.647Z,98294.61
2017-09-27T17:53:58.191Z,98305.92
2017-09-27T17:56:25.817Z,98308.95
2017-09-27T17:58:53.418Z,98303.90
2017-09-27T18:01:20.955Z,98307.97
2017-09-27T18:03:49.397Z,98302.27
2017-09-27T18:09:34.140Z,98314.12
2017-09-27T18:15:24.040Z,98317.58
2017-09-27T18:18:04.802Z,98319.09
2017-09-27T18:20:32.446Z,98320.07
2017-09-27T18:23:00.115Z,98319.95
2017-09-27T18:25:27.788Z,98328.06
2017-09-27T18:27:56.087Z,98324.40
2017-09-27T18:30:24.803Z,98332.36
2017-09-27T18:32:52.427Z,98335.66
2017-09-27T18:35:21.455Z,98340.55
2017-09-27T18:37:49.034Z,98341.71
2017-09-27T18:40:16.769Z,98340.20
2017-09-27T18:42:45.053Z,98340.36
2017-09-27T18:45:12.640Z,98343.89
2017-09-27T18:47:40.702Z,98348.78
2017-09-27T18:50:09.276Z,98346.48
2017-09-27T18:52:37.338Z,98349.26
2017-09-27T18:55:05.725Z,98349.56
2017-09-27T18:57:33.333Z,98347.97
2017-09-27T19:00:01.087Z,98350.72
2017-09-27T19:02:28.643Z,98353.88
2017-09-27T19:04:56.382Z,98350.52
2017-09-27T19:07:24.006Z,98356.19
2017-09-27T19:09:51.649Z,98358.70
2017-09-27T19:12:19.273Z,98356.19
2017-09-27T19:14:46.899Z,98357.56
2017-09-27T19:17:14.452Z,98357.33
2017-09-27T19:19:42.105Z,98357.50
2017-09-27T19:22:09.732Z,98351.25
2017-09-27T19:24:37.399Z,98323.27
2017-09-27T19:27:05.654Z,98346.37
2017-09-27T19:29:33.233Z,98358.76
2017-09-27T19:32:00.923Z,98359.33
2017-09-27T19:34:28.770Z,98359.03
2017-09-27T19:36:56.384Z,98361.90
2017-09-27T19:39:24.454Z,98361.43
2017-09-27T19:41:52.018Z,98358.80
2017-09-27T19:44:19.557Z,98362.76
2017-09-27T19:46:47.112Z,98362.61
2017-09-27T19:49:14.639Z,98369.59
2017-09-27T19:51:43.562Z,98370.15
2017-09-27T19:54:12.373Z,98368.30
2017-09-27T19:56:40.000Z,98371.89
2017-09-27T19:59:07.540Z,98378.74
2017-09-27T20:01:38.141Z,98374.97
2017-09-27T20:04:06.598Z,98372.81
2017-09-27T20:06:34.937Z,98371.48
2017-09-27T20:09:02.574Z,98350.52
2017-09-27T20:11:30.428Z,98376.42
2017-09-27T20:13:57.970Z,98377.86
2017-09-27T20:16:26.364Z,98374.53
2017-09-27T20:18:53.962Z,98380.94
2017-09-27T20:21:22.497Z,98378.06
2017-09-27T20:23:51.053Z,98379.30
2017-09-27T20:26:20.017Z,98381.61
2017-09-27T20:28:47.597Z,98384.09
2017-09-27T20:31:15.963Z,98380.89
2017-09-27T20:33:44.429Z,98385.39
2017-09-27T20:36:13.257Z,98365.56
2017-09-27T20:38:40.895Z,98385.16
2017-09-27T20:41:09.773Z,98389.08
2017-09-27T20:43:37.370Z,98389.33
2017-09-27T20:46:06.729Z,98394.61
2017-09-27T20:48:34.289Z,98389.49
2017-09-27T20:51:03.607Z,98393.58
2017-09-27T20:53:31.227Z,98396.77
2017-09-27T20:55:58.976Z,98397.33
2017-09-27T20:58:26.790Z,98395.89
2017-09-27T21:00:55.295Z,98392.50
2017-09-27T21:03:22.928Z,98390.31
2017-09-27T21:05:50.990Z,98395.59
2017-09-27T21:08:19.144Z,98393.76
2017-09-27T21:10:46.675Z,98394.58
2017-09-27T21:13:14.320Z,98392.45
2017-09-27T21:15:41.941Z,98393.30
2017-09-27T21:18:10.371Z,98391.46
2017-09-27T21:20:38.829Z,98387.38
2017-09-27T21:23:06.360Z,98401.02
2017-09-27T21:25:33.958Z,98399.65
2017-09-27T21:28:01.616Z,98399.87
2017-09-27T21:30:31.012Z,98407.17
2017-09-27T21:32:58.558Z,98408.66
2017-09-27T21:35:27.002Z,98401.32
2017-09-27T21:37:54.736Z,98396.52
2017-09-27T21:40:22.929Z,98399.77
2017-09-27T21:42:50.495Z,98399.70
2017-09-27T21:45:18.876Z,98394.03
2017-09-27T21:47:47.605Z,98402.55
2017-09-27T21:50:15.136Z,98398.65
2017-09-27T21:52:43.687Z,98397.53
2017-09-27T21:55:11.732Z,98402.32
2017-09-27T21:57:40.296Z,98410.39
2017-09-27T22:00:08.801Z,98410.68
2017-09-27T22:02:36.350Z,98416.42
2017-09-27T22:05:04.008Z,98405.31
2017-09-27T22:07:32.507Z,98417.70
2017-09-27T22:10:00.176Z,98415.01
2017-09-27T22:12:27.759Z,98382.06
2017-09-27T22:14:56.522Z,98422.22
2017-09-27T22:17:24.714Z,98425.86
2017-09-27T22:19:52.280Z,98422.71
2017-09-27T22:22:21.152Z,98421.17
2017-09-27T22:24:48.739Z,98418.95
2017-09-27T22:27:17.248Z,98415.61
2017-09-27T22:29:44.763Z,98423.78
2017-09-27T22:32:12.604Z,98418.19
2017-09-27T22:34:40.764Z,98425.54
2017-09-27T22:37:08.355Z,98419.53
2017-09-27T22:39:36.730Z,98415.70
2017-09-27T22:42:04.622Z,98413.98
2017-09-27T22:44:32.353Z,98411.73
2017-09-27T22:47:01.109Z,98417.48
2017-09-27T22:49:29.405Z,98408.06
2017-09-27T22:51:56.990Z,98413.84
2017-09-27T22:54:24.849Z,98416.47
2017-09-27T22:56:52.499Z,98412.09
2017-09-27T22:59:20.184Z,98418.02
2017-09-27T23:01:47.752Z,98412.34
2017-09-27T23:04:15.357Z,98405.39
2017-09-27T23:06:42.988Z,98410.33
2017-09-27T23:09:11.625Z,98414.62
2017-09-27T23:11:39.183Z,98390.58
2017-09-27T23:14:06.761Z,98412.43
2017-09-27T23:16:34.399Z,98390.15
2017-09-27T23:19:02.504Z,98416.31
2017-09-27T23:21:30.122Z,98416.23
2017-09-27T23:24:00.046Z,98414.41
2017-09-27T23:26:27.871Z,98420.48
2017-09-27T23:28:56.031Z,98417.27
2017-09-27T23:31:23.663Z,98417.88
2017-09-27T23:33:51.217Z,98422.63
2017-09-27T23:36:19.202Z,98414.13
2017-09-27T23:38:47.990Z,98419.59
2017-09-27T23:41:17.989Z,98395.34
2017-09-27T23:43:48.295Z,98422.69
2017-09-27T23:46:15.925Z,98422.14
2017-09-27T23:48:43.516Z,98416.56
2017-09-27T23:51:11.952Z,98413.20
2017-09-27T23:53:41.211Z,98413.86
2017-09-27T23:56:09.874Z,98397.79
2017-09-27T23:58:38.606Z,98408.93
